createdAt,value
2018-02-21T00:00:41.064Z,32.50
2018-02-21T00:01:40.982Z,28.90
2018-02-21T00:02:40.892Z,28.60
2018-02-21T00:03:40.803Z,29.30
2018-02-21T00:04:40.720Z,33.10
2018-02-21T00:05:40.642Z,30.30
2018-02-21T00:06:40.554Z,28.80
2018-02-21T00:07:40.469Z,31.50
2018-02-21T00:08:40.374Z,31.90
2018-02-21T00:09:40.294Z,31.70
2018-02-21T00:10:40.214Z,29.00
2018-02-21T00:11:40.128Z,31.00
2018-02-21T00:12:40.048Z,30.10
2018-02-21T00:13:39.955Z,28.80
2018-02-21T00:14:39.873Z,29.60
2018-02-21T00:15:39.794Z,29.10
2018-02-21T00:16:39.718Z,29.80
2018-02-21T00:17:39.625Z,29.50
2018-02-21T00:18:39.531Z,30.00
2018-02-21T00:19:39.441Z,27.60
2018-02-21T00:20:39.367Z,31.30
2018-02-21T00:21:39.266Z,32.00
2018-02-21T00:22:39.200Z,33.20
2018-02-21T00:23:39.109Z,28.60
2018-02-21T00:24:39.019Z,31.90
2018-02-21T00:25:38.931Z,30.60
2018-02-21T00:26:38.839Z,33.20
2018-02-21T00:27:38.763Z,31.00
2018-02-21T00:28:38.682Z,29.40
2018-02-21T00:29:38.592Z,31.60
2018-02-21T00:30:38.507Z,29.40
2018-02-21T00:31:38.432Z,30.40
2018-02-21T00:32:38.334Z,32.20
2018-02-21T00:33:38.249Z,31.10
2018-02-21T00:34:38.169Z,32.60
2018-02-21T00:35:38.095Z,30.30
2018-02-21T00:36:37.997Z,32.30
2018-02-21T00:37:37.909Z,29.80
2018-02-21T00:38:37.838Z,31.00
2018-02-21T00:39:37.748Z,30.20
2018-02-21T00:40:37.665Z,30.00
2018-02-21T00:41:37.575Z,29.90
2018-02-21T00:42:37.483Z,31.60
2018-02-21T00:43:37.392Z,31.70
2018-02-21T00:44:37.315Z,28.80
2018-02-21T00:45:37.235Z,30.40
2018-02-21T00:46:37.148Z,29.50
2018-02-21T00:47:37.072Z,31.20
2018-02-21T00:48:36.969Z,31.70
2018-02-21T00:49:36.888Z,32.50
2018-02-21T00:50:36.792Z,31.40
2018-02-21T00:51:36.716Z,31.90
2018-02-21T00:52:36.641Z,33.80
2018-02-21T00:53:36.543Z,31.50
2018-02-21T00:54:36.473Z,30.30
2018-02-21T00:55:36.377Z,32.50
2018-02-21T00:56:36.283Z,33.60
2018-02-21T00:57:36.214Z,31.60
2018-02-21T00:58:36.117Z,30.90
2018-02-21T00:59:36.047Z,28.70
2018-02-21T01:00:35.948Z,29.50
2018-02-21T01:01:35.861Z,28.90
2018-02-21T01:02:35.775Z,30.00
2018-02-21T01:03:35.702Z,29.90
2018-02-21T01:04:35.621Z,29.90
2018-02-21T01:05:35.526Z,28.70
2018-02-21T01:06:35.441Z,29.40
2018-02-21T01:07:35.343Z,32.10
2018-02-21T01:08:35.267Z,29.10
2018-02-21T01:09:35.172Z,29.60
2018-02-21T01:10:35.100Z,30.80
2018-02-21T01:11:35.014Z,29.70
2018-02-21T01:12:34.920Z,29.30
2018-02-21T01:13:34.851Z,28.50
2018-02-21T01:14:34.745Z,31.20
2018-02-21T01:15:34.658Z,30.00
2018-02-21T01:16:34.606Z,29.70
2018-02-21T01:17:34.494Z,29.70
2018-02-21T01:18:34.411Z,29.70
2018-02-21T01:19:34.323Z,30.20
2018-02-21T01:20:34.244Z,28.10
2018-02-21T01:21:34.153Z,28.80
2018-02-21T01:22:34.072Z,31.40
2018-02-21T01:23:34.000Z,30.60
2018-02-21T01:24:33.903Z,31.60
2018-02-21T01:25:33.825Z,31.10
2018-02-21T01:26:33.724Z,31.60
2018-02-21T01:27:33.649Z,30.20
2018-02-21T01:28:33.548Z,30.00
2018-02-21T01:29:33.481Z,32.70
2018-02-21T01:30:33.389Z,30.00
2018-02-21T01:31:33.298Z,30.00
2018-02-21T01:32:33.229Z,28.60
2018-02-21T01:33:33.125Z,30.20
2018-02-21T01:34:33.054Z,30.10
2018-02-21T01:35:32.956Z,30.90
2018-02-21T01:36:32.874Z,30.40
2018-02-21T01:37:32.795Z,29.80
2018-02-21T01:38:32.700Z,31.00
2018-02-21T01:39:32.609Z,31.70
2018-02-21T01:40:32.527Z,31.90
2018-02-21T01:41:32.450Z,31.80
2018-02-21T01:42:32.370Z,31.10
2018-02-21T01:43:32.280Z,28.20
2018-02-21T01:44:32.188Z,30.30
2018-02-21T01:45:32.107Z,30.50
2018-02-21T01:46:32.022Z,28.80
2018-02-21T01:47:31.922Z,31.10
2018-02-21T01:48:31.851Z,30.70
2018-02-21T01:49:31.772Z,30.80
2018-02-21T01:50:31.680Z,30.00
2018-02-21T01:51:31.598Z,33.60
2018-02-21T01:52:31.498Z,30.70
2018-02-21T01:53:31.419Z,30.40
2018-02-21T01:54:31.327Z,28.80
2018-02-21T01:55:31.251Z,32.60
2018-02-21T01:56:31.168Z,28.70
2018-02-21T01:57:31.074Z,31.40
2018-02-21T01:58:31.002Z,33.20
2018-02-21T01:59:30.903Z,31.50
2018-02-21T02:00:30.811Z,30.20
2018-02-21T02:01:30.732Z,30.90
2018-02-21T02:02:30.655Z,30.40
2018-02-21T02:03:30.575Z,30.80
2018-02-21T02:04:30.484Z,31.70
2018-02-21T02:05:30.394Z,31.30
2018-02-21T02:06:30.302Z,28.90
2018-02-21T02:07:30.226Z,30.80
2018-02-21T02:08:30.136Z,31.70
2018-02-21T02:09:30.054Z,30.80
2018-02-21T02:10:29.968Z,31.50
2018-02-21T02:11:29.885Z,31.90
2018-02-21T02:12:29.789Z,32.60
2018-02-21T02:13:29.707Z,31.90
2018-02-21T02:14:29.628Z,32.10
2018-02-21T02:15:29.528Z,27.60
2018-02-21T02:16:29.466Z,32.90
2018-02-21T02:17:29.363Z,31.80
2018-02-21T02:18:29.279Z,30.90
2018-02-21T02:19:29.193Z,33.50
2018-02-21T02:20:29.101Z,33.00
2018-02-21T02:21:29.043Z,31.60
2018-02-21T02:22:28.928Z,32.00
2018-02-21T02:23:28.851Z,30.00
2018-02-21T02:24:28.773Z,30.50
2018-02-21T02:25:28.678Z,31.90
2018-02-21T02:26:28.600Z,30.70
2018-02-21T02:27:28.509Z,33.00
2018-02-21T02:28:28.434Z,32.00
2018-02-21T02:29:28.357Z,30.80
2018-02-21T02:30:28.257Z,32.70
2018-02-21T02:31:28.166Z,33.40
2018-02-21T02:32:28.085Z,32.00
2018-02-21T02:33:27.997Z,33.50
2018-02-21T02:34:27.908Z,32.80
2018-02-21T02:35:27.824Z,32.10
2018-02-21T02:36:27.758Z,34.00
2018-02-21T02:37:27.663Z,32.40
2018-02-21T02:38:27.569Z,29.60
2018-02-21T02:39:27.480Z,33.40
2018-02-21T02:40:27.399Z,30.80
2018-02-21T02:41:27.309Z,30.50
2018-02-21T02:42:27.221Z,33.60
2018-02-21T02:43:27.136Z,32.50
2018-02-21T02:44:27.053Z,32.50
2018-02-21T02:45:26.978Z,32.40
2018-02-21T02:46:26.881Z,32.30
2018-02-21T02:47:26.795Z,32.70
2018-02-21T02:48:26.710Z,34.30
2018-02-21T02:49:26.622Z,33.00
2018-02-21T02:50:26.536Z,33.80
2018-02-21T02:51:26.459Z,32.00
2018-02-21T02:52:26.385Z,32.50
2018-02-21T02:53:26.284Z,31.20
2018-02-21T02:54:26.199Z,32.80
2018-02-21T02:55:26.108Z,32.50
2018-02-21T02:56:26.040Z,34.10
2018-02-21T02:57:25.959Z,31.90
2018-02-21T02:58:25.863Z,30.40
2018-02-21T02:59:25.775Z,37.00
2018-02-21T03:00:25.686Z,34.50
2018-02-21T03:01:25.608Z,29.60
2018-02-21T03:02:25.506Z,33.50
2018-02-21T03:03:25.431Z,33.00
2018-02-21T03:04:25.345Z,32.30
2018-02-21T03:05:25.258Z,31.50
2018-02-21T03:06:25.177Z,31.40
2018-02-21T03:07:25.087Z,33.10
2018-02-21T03:08:25.012Z,33.40
2018-02-21T03:09:24.910Z,32.20
2018-02-21T03:10:24.837Z,33.60
2018-02-21T03:11:24.738Z,31.10
2018-02-21T03:12:24.661Z,32.20
2018-02-21T03:13:24.574Z,32.10
2018-02-21T03:14:24.490Z,30.40
2018-02-21T03:15:24.405Z,31.90
2018-02-21T03:16:24.310Z,31.90
2018-02-21T03:17:24.240Z,32.70
2018-02-21T03:18:24.134Z,33.80
2018-02-21T03:19:24.061Z,33.60
2018-02-21T03:20:23.975Z,32.60
2018-02-21T03:21:23.888Z,31.50
2018-02-21T03:22:23.803Z,34.10
2018-02-21T03:23:23.718Z,32.60
2018-02-21T03:24:23.637Z,32.40
2018-02-21T03:25:23.540Z,32.40
2018-02-21T03:26:23.460Z,31.50
2018-02-21T03:27:23.389Z,32.30
2018-02-21T03:28:23.291Z,31.50
2018-02-21T03:29:23.196Z,31.90
2018-02-21T03:30:23.121Z,33.40
2018-02-21T03:31:23.027Z,31.40
2018-02-21T03:32:22.934Z,33.70
2018-02-21T03:33:22.869Z,32.40
2018-02-21T03:34:22.774Z,32.30
2018-02-21T03:35:22.690Z,32.10
2018-02-21T03:36:22.610Z,31.50
2018-02-21T03:37:22.514Z,32.40
2018-02-21T03:38:22.428Z,31.60
2018-02-21T03:39:22.343Z,29.20
2018-02-21T03:40:22.259Z,33.00
2018-02-21T03:41:22.188Z,33.10
2018-02-21T03:42:22.089Z,31.30
2018-02-21T03:43:22.011Z,33.50
2018-02-21T03:44:21.923Z,33.70
2018-02-21T03:45:21.839Z,32.30
2018-02-21T03:46:21.741Z,33.50
2018-02-21T03:47:21.657Z,31.80
2018-02-21T03:48:21.576Z,29.70
2018-02-21T03:49:21.491Z,31.00
2018-02-21T03:50:21.413Z,31.00
2018-02-21T03:51:21.314Z,33.90
2018-02-21T03:52:21.233Z,32.70
2018-02-21T03:53:21.139Z,32.00
2018-02-21T03:54:21.061Z,32.50
2018-02-21T03:55:20.970Z,33.50
2018-02-21T03:56:20.888Z,33.70
2018-02-21T03:57:20.806Z,29.40
2018-02-21T03:58:20.713Z,31.80
2018-02-21T03:59:20.629Z,32.10
2018-02-21T04:00:20.543Z,31.60
2018-02-21T04:01:20.450Z,32.60
2018-02-21T04:02:20.368Z,32.10
2018-02-21T04:03:20.299Z,32.00
2018-02-21T04:04:20.246Z,32.70
2018-02-21T04:05:20.119Z,30.80
2018-02-21T04:06:20.028Z,31.40
2018-02-21T04:07:19.939Z,30.00
2018-02-21T04:08:19.873Z,35.00
2018-02-21T04:09:19.764Z,31.20
2018-02-21T04:10:19.695Z,31.30
2018-02-21T04:11:19.605Z,32.90
2018-02-21T04:12:19.513Z,31.30
2018-02-21T04:13:19.430Z,34.30
2018-02-21T04:14:19.349Z,32.00
2018-02-21T04:15:19.269Z,31.30
2018-02-21T04:16:19.169Z,30.70
2018-02-21T04:17:19.098Z,31.90
2018-02-21T04:18:19.005Z,31.50
2018-02-21T04:19:18.919Z,32.70
2018-02-21T04:20:18.831Z,32.50
2018-02-21T04:21:18.741Z,31.90
2018-02-21T04:22:18.669Z,32.10
2018-02-21T04:23:18.570Z,29.20
2018-02-21T04:24:18.479Z,31.40
2018-02-21T04:25:18.403Z,31.50
2018-02-21T04:26:18.315Z,31.80
2018-02-21T04:27:18.228Z,31.90
2018-02-21T04:28:18.145Z,32.10
2018-02-21T04:29:18.067Z,31.50
2018-02-21T04:30:17.973Z,31.90
2018-02-21T04:31:17.889Z,31.60
2018-02-21T04:32:17.797Z,32.70
2018-02-21T04:33:17.721Z,32.70
2018-02-21T04:34:17.671Z,32.60
2018-02-21T04:35:17.542Z,33.50
2018-02-21T04:36:17.472Z,34.10
2018-02-21T04:37:17.370Z,33.80
2018-02-21T04:38:17.287Z,32.90
2018-02-21T04:39:17.198Z,33.00
2018-02-21T04:40:17.106Z,32.50
2018-02-21T04:41:17.024Z,31.50
2018-02-21T04:42:16.944Z,33.20
2018-02-21T04:43:16.860Z,30.90
2018-02-21T04:44:16.777Z,31.90
2018-02-21T04:45:16.694Z,33.00
2018-02-21T04:46:16.600Z,33.00
2018-02-21T04:47:16.516Z,32.80
2018-02-21T04:48:16.420Z,32.70
2018-02-21T04:49:16.346Z,35.20
2018-02-21T04:50:16.255Z,31.30
2018-02-21T04:51:16.167Z,36.80
2018-02-21T04:52:16.091Z,31.40
2018-02-21T04:53:15.994Z,31.80
2018-02-21T04:54:15.923Z,33.40
2018-02-21T04:55:15.828Z,32.10
2018-02-21T04:56:15.735Z,33.40
2018-02-21T04:57:15.653Z,33.70
2018-02-21T04:58:15.568Z,32.10
2018-02-21T04:59:15.485Z,31.90
2018-02-21T05:00:15.403Z,32.70
2018-02-21T05:01:15.323Z,33.70
2018-02-21T05:02:15.222Z,31.30
2018-02-21T05:03:15.138Z,33.70
2018-02-21T05:04:15.058Z,35.70
2018-02-21T05:05:14.974Z,36.10
2018-02-21T05:06:14.884Z,33.60
2018-02-21T05:07:14.796Z,31.60
2018-02-21T05:08:14.713Z,35.40
2018-02-21T05:09:14.619Z,35.00
2018-02-21T05:10:14.543Z,34.00
2018-02-21T05:11:14.461Z,34.20
2018-02-21T05:12:14.359Z,33.90
2018-02-21T05:13:14.281Z,35.20
2018-02-21T05:14:14.198Z,32.80
2018-02-21T05:15:14.114Z,32.50
2018-02-21T05:16:14.027Z,32.60
2018-02-21T05:17:13.939Z,34.10
2018-02-21T05:18:13.849Z,33.50
2018-02-21T05:19:13.764Z,33.90
2018-02-21T05:20:13.670Z,35.90
2018-02-21T05:21:13.601Z,31.60
2018-02-21T05:22:13.506Z,33.20
2018-02-21T05:23:13.423Z,33.20
2018-02-21T05:24:13.342Z,31.30
2018-02-21T05:25:13.246Z,34.60
2018-02-21T05:26:13.170Z,33.00
2018-02-21T05:27:13.075Z,35.10
2018-02-21T05:28:13.000Z,31.70
2018-02-21T05:29:12.908Z,31.30
2018-02-21T05:30:12.814Z,31.80
2018-02-21T05:31:12.754Z,34.20
2018-02-21T05:32:12.654Z,33.20
2018-02-21T05:33:12.566Z,33.00
2018-02-21T05:34:12.479Z,32.90
2018-02-21T05:35:12.403Z,32.90
2018-02-21T05:36:12.299Z,32.20
2018-02-21T05:37:12.215Z,32.30
2018-02-21T05:38:12.129Z,34.00
2018-02-21T05:39:12.047Z,33.40
2018-02-21T05:40:11.965Z,33.50
2018-02-21T05:41:11.876Z,31.50
2018-02-21T05:42:11.804Z,33.40
2018-02-21T05:43:11.704Z,32.70
2018-02-21T05:44:11.616Z,34.70
2018-02-21T05:45:11.527Z,34.00
2018-02-21T05:46:11.437Z,34.30
2018-02-21T05:47:11.369Z,33.40
2018-02-21T05:48:11.283Z,34.40
2018-02-21T05:49:11.190Z,37.80
2018-02-21T05:50:11.104Z,35.90
2018-02-21T05:51:11.034Z,34.00
2018-02-21T05:52:10.929Z,32.80
2018-02-21T05:53:10.857Z,35.70
2018-02-21T05:54:10.753Z,35.00
2018-02-21T05:55:10.676Z,36.10
2018-02-21T05:56:10.595Z,34.00
2018-02-21T05:57:10.500Z,35.70
2018-02-21T05:58:10.430Z,34.30
2018-02-21T05:59:10.328Z,32.80
2018-02-21T06:00:10.250Z,33.90
2018-02-21T06:01:10.157Z,36.50
2018-02-21T06:02:10.074Z,35.20
2018-02-21T06:03:09.977Z,35.70
2018-02-21T06:04:09.907Z,35.00
2018-02-21T06:05:09.912Z,33.80
2018-02-21T06:06:09.731Z,33.60
2018-02-21T06:07:09.645Z,34.50
2018-02-21T06:08:09.552Z,33.60
2018-02-21T06:09:09.486Z,35.50
2018-02-21T06:10:09.376Z,35.20
2018-02-21T06:11:09.300Z,37.80
2018-02-21T06:12:09.208Z,35.30
2018-02-21T06:13:09.129Z,32.30
2018-02-21T06:14:09.047Z,34.90
2018-02-21T06:15:08.960Z,34.00
2018-02-21T06:16:08.870Z,35.90
2018-02-21T06:17:08.780Z,36.60
2018-02-21T06:18:08.693Z,36.30
2018-02-21T06:19:08.603Z,36.80
2018-02-21T06:20:08.532Z,35.90
2018-02-21T06:21:08.456Z,37.40
2018-02-21T06:22:08.353Z,35.00
2018-02-21T06:23:08.279Z,35.30
2018-02-21T06:24:08.186Z,33.40
2018-02-21T06:25:08.111Z,36.20
2018-02-21T06:26:08.013Z,38.20
2018-02-21T06:27:07.933Z,35.30
2018-02-21T06:28:07.836Z,35.70
2018-02-21T06:29:07.765Z,37.70
2018-02-21T06:30:07.670Z,34.60
2018-02-21T06:31:07.584Z,40.40
2018-02-21T06:32:07.544Z,36.30
2018-02-21T06:33:07.405Z,38.80
2018-02-21T06:34:07.335Z,37.80
2018-02-21T06:35:07.241Z,34.60
2018-02-21T06:36:07.160Z,37.00
2018-02-21T06:37:07.073Z,38.00
2018-02-21T06:38:06.980Z,34.30
2018-02-21T06:39:06.896Z,33.60
2018-02-21T06:40:06.811Z,36.30
2018-02-21T06:41:06.729Z,34.20
2018-02-21T06:42:06.637Z,36.80
2018-02-21T06:43:06.547Z,37.60
2018-02-21T06:44:06.469Z,35.80
2018-02-21T06:45:06.386Z,31.80
2018-02-21T06:46:06.308Z,37.30
2018-02-21T06:47:06.209Z,37.60
2018-02-21T06:48:06.136Z,35.50
2018-02-21T06:49:06.088Z,37.20
2018-02-21T06:50:05.952Z,37.80
2018-02-21T06:51:05.865Z,33.90
2018-02-21T06:52:05.781Z,36.10
2018-02-21T06:53:05.699Z,36.50
2018-02-21T06:54:05.614Z,36.30
2018-02-21T06:55:05.519Z,35.40
2018-02-21T06:56:05.441Z,37.00
2018-02-21T06:57:05.351Z,36.30
2018-02-21T06:58:05.263Z,34.00
2018-02-21T06:59:05.192Z,36.10
2018-02-21T07:00:05.098Z,33.20
2018-02-21T07:01:05.013Z,33.90
2018-02-21T07:02:04.926Z,34.80
2018-02-21T07:03:04.831Z,33.60
2018-02-21T07:04:04.749Z,36.40
2018-02-21T07:05:04.664Z,34.80
2018-02-21T07:06:04.591Z,37.90
2018-02-21T07:07:04.502Z,32.30
2018-02-21T07:08:04.409Z,31.70
2018-02-21T07:09:04.326Z,37.90
2018-02-21T07:10:04.249Z,35.60
2018-02-21T07:11:04.147Z,35.20
2018-02-21T07:12:04.079Z,32.70
2018-02-21T07:13:03.982Z,35.40
2018-02-21T07:14:03.900Z,32.40
2018-02-21T07:15:03.812Z,35.10
2018-02-21T07:16:03.737Z,32.80
2018-02-21T07:17:03.642Z,34.20
2018-02-21T07:18:03.560Z,33.40
2018-02-21T07:19:03.477Z,33.60
2018-02-21T07:20:03.392Z,35.90
2018-02-21T07:21:03.310Z,34.50
2018-02-21T07:22:03.213Z,34.40
2018-02-21T07:23:03.139Z,35.50
2018-02-21T07:24:03.049Z,33.50
2018-02-21T07:25:02.964Z,34.70
2018-02-21T07:26:02.874Z,32.80
2018-02-21T07:27:02.790Z,37.20
2018-02-21T07:28:02.705Z,34.30
2018-02-21T07:29:02.638Z,34.90
2018-02-21T07:30:02.540Z,36.30
2018-02-21T07:31:02.468Z,33.50
2018-02-21T07:32:02.360Z,35.70
2018-02-21T07:33:02.295Z,34.50
2018-02-21T07:34:02.190Z,36.10
2018-02-21T07:35:02.113Z,38.00
2018-02-21T07:36:02.031Z,36.40
2018-02-21T07:37:01.939Z,36.10
2018-02-21T07:38:01.872Z,32.80
2018-02-21T07:39:01.772Z,36.20
2018-02-21T07:40:01.685Z,35.10
2018-02-21T07:41:01.608Z,34.50
2018-02-21T07:42:01.518Z,36.80
2018-02-21T07:43:01.430Z,37.80
2018-02-21T07:44:01.342Z,33.40
2018-02-21T07:45:01.264Z,36.70
2018-02-21T07:46:01.184Z,34.00
2018-02-21T07:47:01.093Z,31.10
2018-02-21T07:48:01.003Z,34.70
2018-02-21T07:49:00.939Z,35.50
2018-02-21T07:50:00.836Z,35.80
2018-02-21T07:51:00.757Z,31.80
2018-02-21T07:52:00.674Z,35.40
2018-02-21T07:53:00.582Z,34.00
2018-02-21T07:54:00.507Z,37.10
2018-02-21T07:55:00.419Z,37.40
2018-02-21T07:56:00.339Z,36.50
2018-02-21T07:57:00.243Z,37.90
2018-02-21T07:58:00.168Z,31.30
2018-02-21T07:59:00.083Z,34.80
2018-02-21T07:59:59.994Z,36.00
2018-02-21T08:00:59.937Z,34.50
2018-02-21T08:01:59.821Z,35.00
2018-02-21T08:02:59.764Z,35.50
2018-02-21T08:03:59.667Z,34.30
2018-02-21T08:04:59.615Z,35.30
2018-02-21T08:05:59.494Z,38.30
2018-02-21T08:06:59.405Z,37.80
2018-02-21T08:07:59.319Z,36.10
2018-02-21T08:08:59.244Z,34.80
2018-02-21T08:09:59.179Z,37.90
2018-02-21T08:10:59.216Z,35.40
2018-02-21T08:11:59.130Z,33.50
2018-02-21T08:12:59.007Z,33.10
2018-02-21T08:13:59.143Z,36.00
2018-02-21T08:14:58.858Z,36.80
2018-02-21T08:15:58.643Z,35.70
2018-02-21T08:16:58.706Z,33.10
2018-02-21T08:17:58.509Z,36.80
2018-02-21T08:18:58.511Z,37.60
2018-02-21T08:19:58.629Z,32.90
2018-02-21T08:20:58.298Z,33.80
2018-02-21T08:21:58.154Z,35.90
2018-02-21T08:22:58.110Z,34.60
2018-02-21T08:23:58.211Z,36.40
2018-02-21T08:24:57.931Z,32.00
2018-02-21T08:25:57.819Z,35.50
2018-02-21T08:26:57.724Z,34.60
2018-02-21T08:27:57.631Z,32.80
2018-02-21T08:28:57.544Z,33.30
2018-02-21T08:29:57.472Z,33.30
2018-02-21T08:30:57.388Z,32.00
2018-02-21T08:31:57.295Z,32.20
2018-02-21T08:32:57.220Z,33.10
2018-02-21T08:33:57.129Z,33.20
2018-02-21T08:34:57.043Z,36.80
2018-02-21T08:35:56.959Z,32.20
2018-02-21T08:36:56.894Z,31.00
2018-02-21T08:37:56.798Z,34.10
2018-02-21T08:38:56.727Z,32.10
2018-02-21T08:39:56.634Z,33.10
2018-02-21T08:40:56.552Z,33.70
2018-02-21T08:41:56.456Z,32.00
2018-02-21T08:42:56.645Z,31.60
2018-02-21T08:43:56.304Z,32.40
2018-02-21T08:44:56.219Z,31.00
2018-02-21T08:45:56.185Z,32.60
2018-02-21T08:46:56.050Z,30.20
2018-02-21T08:47:55.968Z,32.50
2018-02-21T08:48:55.893Z,31.70
2018-02-21T08:49:55.799Z,30.80
2018-02-21T08:50:55.721Z,32.70
2018-02-21T08:51:55.639Z,33.50
2018-02-21T08:52:55.556Z,29.50
2018-02-21T08:53:55.473Z,33.20
2018-02-21T08:54:55.402Z,33.40
2018-02-21T08:55:55.319Z,31.90
2018-02-21T08:56:55.243Z,32.50
2018-02-21T08:57:55.176Z,28.10
2018-02-21T08:58:55.061Z,30.70
2018-02-21T08:59:54.991Z,32.10
2018-02-21T09:00:54.896Z,32.20
2018-02-21T09:01:54.825Z,31.70
2018-02-21T09:02:54.742Z,28.70
2018-02-21T09:03:54.661Z,30.40
2018-02-21T09:04:54.579Z,29.70
2018-02-21T09:05:54.495Z,29.80
2018-02-21T09:06:54.415Z,28.40
2018-02-21T09:07:54.325Z,28.00
2018-02-21T09:08:54.247Z,29.70
2018-02-21T09:09:54.165Z,32.90
2018-02-21T09:10:54.093Z,30.00
2018-02-21T09:11:54.011Z,28.70
2018-02-21T09:12:53.932Z,28.10
2018-02-21T09:13:53.841Z,28.20
2018-02-21T09:14:53.765Z,30.10
2018-02-21T09:15:53.676Z,30.60
2018-02-21T09:16:53.595Z,27.90
2018-02-21T09:17:53.520Z,31.90
2018-02-21T09:18:53.433Z,32.00
2018-02-21T09:19:53.346Z,28.80
2018-02-21T09:20:53.282Z,28.00
2018-02-21T09:21:53.191Z,29.20
2018-02-21T09:22:53.100Z,28.70
2018-02-21T09:23:53.028Z,29.70
2018-02-21T09:24:52.946Z,28.50
2018-02-21T09:25:52.877Z,29.90
2018-02-21T09:26:52.784Z,29.00
2018-02-21T09:27:52.698Z,29.90
2018-02-21T09:28:52.632Z,30.60
2018-02-21T09:29:52.538Z,31.40
2018-02-21T09:30:52.454Z,30.40
2018-02-21T09:31:52.380Z,28.20
2018-02-21T09:32:52.299Z,31.90
2018-02-21T09:33:52.227Z,30.30
2018-02-21T09:34:52.148Z,29.80
2018-02-21T09:35:52.052Z,29.80
2018-02-21T09:36:51.982Z,32.70
2018-02-21T09:37:51.900Z,30.60
2018-02-21T09:38:51.817Z,33.10
2018-02-21T09:39:51.735Z,31.30
2018-02-21T09:40:51.655Z,30.70
2018-02-21T09:41:51.578Z,30.40
2018-02-21T09:42:51.503Z,30.40
2018-02-21T09:43:51.400Z,31.00
2018-02-21T09:44:51.336Z,31.50
2018-02-21T09:45:51.240Z,28.30
2018-02-21T09:46:51.170Z,29.60
2018-02-21T09:47:51.081Z,28.60
2018-02-21T09:48:51.002Z,31.40
2018-02-21T09:49:50.933Z,30.70
2018-02-21T09:50:50.858Z,29.80
2018-02-21T09:51:50.756Z,31.60
2018-02-21T09:52:50.679Z,29.70
2018-02-21T09:53:50.604Z,29.10
2018-02-21T09:54:50.522Z,31.50
2018-02-21T09:55:50.434Z,28.10
2018-02-21T09:56:50.352Z,30.00
2018-02-21T09:57:50.275Z,29.30
2018-02-21T09:58:50.208Z,30.10
2018-02-21T09:59:50.107Z,29.10
2018-02-21T10:00:50.033Z,32.00
2018-02-21T10:01:49.940Z,30.40
2018-02-21T10:02:49.853Z,27.20
2018-02-21T10:03:49.784Z,26.90
2018-02-21T10:04:49.690Z,32.40
2018-02-21T10:05:49.634Z,27.30
2018-02-21T10:06:49.532Z,29.50
2018-02-21T10:07:49.451Z,28.40
2018-02-21T10:08:49.376Z,27.50
2018-02-21T10:09:49.297Z,24.90
2018-02-21T10:10:49.204Z,28.20
2018-02-21T10:11:49.134Z,29.10
2018-02-21T10:12:49.045Z,28.10
2018-02-21T10:13:48.958Z,28.80
2018-02-21T10:14:48.886Z,27.30
2018-02-21T10:15:48.797Z,28.20
2018-02-21T10:16:48.723Z,27.20
2018-02-21T10:17:48.632Z,26.40
2018-02-21T10:18:48.555Z,26.00
2018-02-21T10:19:48.475Z,24.20
2018-02-21T10:20:48.394Z,25.60
2018-02-21T10:21:48.309Z,28.10
2018-02-21T10:22:48.236Z,25.60
2018-02-21T10:23:48.144Z,26.30
2018-02-21T10:24:48.071Z,30.40
2018-02-21T10:25:47.979Z,25.90
2018-02-21T10:26:47.914Z,25.30
2018-02-21T10:27:47.827Z,25.90
2018-02-21T10:28:47.749Z,25.00
2018-02-21T10:29:47.661Z,22.80
2018-02-21T10:30:47.585Z,21.60
2018-02-21T10:31:47.495Z,21.50
2018-02-21T10:32:47.427Z,21.30
2018-02-21T10:33:47.337Z,24.30
2018-02-21T10:34:47.259Z,21.60
2018-02-21T10:35:47.183Z,20.90
2018-02-21T10:36:47.113Z,22.80
2018-02-21T10:37:47.011Z,22.00
2018-02-21T10:38:46.930Z,21.50
2018-02-21T10:39:46.859Z,21.00
2018-02-21T10:40:46.786Z,20.50
2018-02-21T10:41:46.686Z,21.00
2018-02-21T10:42:46.616Z,22.50
2018-02-21T10:43:46.521Z,22.30
2018-02-21T10:44:46.455Z,23.60
2018-02-21T10:45:46.357Z,20.40
2018-02-21T10:46:46.284Z,21.30
2018-02-21T10:47:46.217Z,21.70
2018-02-21T10:48:46.153Z,19.10
2018-02-21T10:49:46.039Z,19.40
2018-02-21T10:50:45.968Z,22.10
2018-02-21T10:51:45.885Z,18.90
2018-02-21T10:52:45.814Z,21.40
2018-02-21T10:53:45.723Z,18.80
2018-02-21T10:54:45.638Z,18.80
2018-02-21T10:55:45.564Z,19.80
2018-02-21T10:56:45.471Z,21.20
2018-02-21T10:57:45.419Z,26.30
2018-02-21T10:58:45.314Z,22.20
2018-02-21T10:59:45.233Z,20.30
2018-02-21T11:00:45.164Z,18.80
2018-02-21T11:01:45.075Z,18.40
2018-02-21T11:02:45.010Z,19.20
2018-02-21T11:03:44.917Z,19.40
2018-02-21T11:04:44.834Z,18.20
2018-02-21T11:05:44.762Z,19.10
2018-02-21T11:06:44.681Z,17.40
2018-02-21T11:07:44.777Z,18.60
2018-02-21T11:08:44.514Z,16.30
2018-02-21T11:09:44.438Z,14.60
2018-02-21T11:10:44.354Z,17.80
2018-02-21T11:11:44.281Z,17.90
2018-02-21T11:12:44.211Z,16.60
2018-02-21T11:13:44.118Z,15.70
2018-02-21T11:14:44.041Z,14.20
2018-02-21T11:15:43.961Z,15.00
2018-02-21T11:16:43.878Z,18.70
2018-02-21T11:17:43.810Z,15.90
2018-02-21T11:18:43.709Z,16.90
2018-02-21T11:19:43.638Z,16.30
2018-02-21T11:20:43.563Z,17.80
2018-02-21T11:21:43.491Z,16.50
2018-02-21T11:22:43.418Z,15.60
2018-02-21T11:23:43.336Z,16.90
2018-02-21T11:24:43.243Z,17.40
2018-02-21T11:25:43.155Z,17.60
2018-02-21T11:26:43.078Z,15.80
2018-02-21T11:27:43.021Z,15.60
2018-02-21T11:28:42.912Z,14.60
2018-02-21T11:29:42.841Z,14.60
2018-02-21T11:30:42.760Z,15.60
2018-02-21T11:31:42.678Z,16.10
2018-02-21T11:32:42.598Z,13.90
2018-02-21T11:33:42.513Z,14.00
2018-02-21T11:34:42.438Z,13.40
2018-02-21T11:35:42.360Z,17.30
2018-02-21T11:36:42.280Z,17.70
2018-02-21T11:37:42.191Z,14.60
2018-02-21T11:38:42.252Z,16.50
2018-02-21T11:39:42.170Z,15.50
2018-02-21T11:40:42.013Z,15.50
2018-02-21T11:41:41.885Z,14.30
2018-02-21T11:42:41.999Z,14.80
2018-02-21T11:43:41.707Z,14.80
2018-02-21T11:44:41.626Z,13.30
2018-02-21T11:45:41.544Z,13.20
2018-02-21T11:46:41.473Z,12.40
2018-02-21T11:47:41.390Z,13.10
2018-02-21T11:48:41.308Z,13.10
2018-02-21T11:49:41.235Z,14.00
2018-02-21T11:50:41.140Z,12.00
2018-02-21T11:51:41.073Z,11.70
2018-02-21T11:52:40.978Z,11.30
2018-02-21T11:53:40.918Z,13.70
2018-02-21T11:54:40.831Z,11.30
2018-02-21T11:55:40.738Z,10.20
2018-02-21T11:56:40.674Z,11.70
2018-02-21T11:57:40.625Z,11.70
2018-02-21T11:58:40.508Z,12.50
2018-02-21T11:59:40.419Z,12.80
2018-02-21T12:00:40.342Z,13.40
2018-02-21T12:01:40.276Z,13.00
2018-02-21T12:02:40.198Z,20.20
2018-02-21T12:03:40.097Z,13.80
2018-02-21T12:04:40.026Z,15.00
2018-02-21T12:05:39.940Z,12.50
2018-02-21T12:06:39.870Z,12.10
2018-02-21T12:07:39.782Z,12.70
2018-02-21T12:08:39.694Z,14.20
2018-02-21T12:09:39.630Z,16.70
2018-02-21T12:10:39.553Z,13.70
2018-02-21T12:11:39.456Z,17.40
2018-02-21T12:12:39.376Z,13.70
2018-02-21T12:13:39.292Z,14.80
2018-02-21T12:14:39.207Z,16.20
2018-02-21T12:15:39.135Z,14.70
2018-02-21T12:16:39.059Z,12.60
2018-02-21T12:17:38.971Z,14.40
2018-02-21T12:18:38.896Z,13.30
2018-02-21T12:19:38.804Z,13.40
2018-02-21T12:20:38.723Z,12.90
2018-02-21T12:21:38.644Z,11.70
2018-02-21T12:22:38.561Z,13.30
2018-02-21T12:23:38.499Z,11.60
2018-02-21T12:24:38.398Z,10.20
2018-02-21T12:25:38.328Z,10.80
2018-02-21T12:26:38.250Z,11.10
2018-02-21T12:27:38.165Z,11.40
2018-02-21T12:28:38.097Z,10.70
2018-02-21T12:29:37.992Z,11.30
2018-02-21T12:30:37.921Z,10.30
2018-02-21T12:31:37.848Z,10.10
2018-02-21T12:32:37.759Z,12.20
2018-02-21T12:33:37.698Z,12.80
2018-02-21T12:34:37.601Z,12.20
2018-02-21T12:35:37.519Z,10.90
2018-02-21T12:36:37.484Z,11.10
2018-02-21T12:37:37.371Z,12.30
2018-02-21T12:38:37.292Z,11.60
2018-02-21T12:39:37.200Z,12.10
2018-02-21T12:40:37.167Z,11.40
2018-02-21T12:41:37.054Z,14.70
2018-02-21T12:42:36.984Z,13.70
2018-02-21T12:43:36.900Z,14.20
2018-02-21T12:44:36.814Z,12.80
2018-02-21T12:45:36.722Z,13.80
2018-02-21T12:46:36.648Z,14.20
2018-02-21T12:47:36.583Z,16.40
2018-02-21T12:48:36.494Z,13.40
2018-02-21T12:49:36.414Z,11.60
2018-02-21T12:50:36.339Z,12.70
2018-02-21T12:51:36.269Z,12.00